createdAt,value
2023-02-13T00:02:05.556Z,102847.09
2023-02-13T00:04:35.137Z,102845.34
2023-02-13T00:07:03.936Z,102849.03
2023-02-13T00:09:31.945Z,102849.03
2023-02-13T00:12:00.180Z,102863.31
2023-02-13T00:14:28.517Z,102865.16
2023-02-13T00:16:56.529Z,102857.09
2023-02-13T00:19:25.422Z,102853.63
2023-02-13T00:21:54.957Z,102853.72
2023-02-13T00:24:23.816Z,102844.84
2023-02-13T00:26:52.042Z,102845.81
2023-02-13T00:29:20.655Z,102840.63
2023-02-13T00:31:49.085Z,102838.00
2023-02-13T00:34:17.201Z,102829.22
2023-02-13T00:36:45.466Z,102816.81
2023-02-13T00:39:14.991Z,102834.59
2023-02-13T00:41:43.091Z,102837.34
2023-02-13T00:44:11.661Z,102835.69
2023-02-13T00:46:39.980Z,102835.81
2023-02-13T00:49:08.447Z,102834.94
2023-02-13T00:51:36.782Z,102840.34
2023-02-13T00:54:05.240Z,102833.25
2023-02-13T00:56:34.679Z,102834.28
2023-02-13T00:59:02.633Z,102825.41
2023-02-13T01:01:30.711Z,102817.44
2023-02-13T01:03:59.017Z,102811.25
2023-02-13T01:06:27.773Z,102811.31
2023-02-13T01:08:55.844Z,102817.59
2023-02-13T01:11:26.297Z,102821.19
2023-02-13T01:13:55.750Z,102822.19
2023-02-13T01:16:23.861Z,102823.19
2023-02-13T01:18:51.953Z,102820.53
2023-02-13T01:21:22.167Z,102814.38
2023-02-13T01:23:51.652Z,102810.91
2023-02-13T01:26:22.284Z,102802.91
2023-02-13T01:28:53.677Z,102801.09
2023-02-13T01:31:23.649Z,102807.38
2023-02-13T01:33:52.357Z,102812.75
2023-02-13T01:36:20.324Z,102805.78
2023-02-13T01:38:48.707Z,102810.28
2023-02-13T01:41:16.719Z,102816.47
2023-02-13T01:43:47.498Z,102813.81
2023-02-13T01:46:19.668Z,102810.34
2023-02-13T01:48:50.897Z,102814.81
2023-02-13T01:51:23.549Z,102821.09
2023-02-13T01:53:56.238Z,102815.03
2023-02-13T01:56:28.464Z,102816.75
2023-02-13T01:59:01.167Z,102823.09
2023-02-13T02:01:30.429Z,102826.56
2023-02-13T02:04:06.143Z,102828.34
2023-02-13T02:06:40.187Z,102823.88
2023-02-13T02:09:15.590Z,102826.56
2023-02-13T02:11:52.838Z,102823.03
2023-02-13T02:14:21.516Z,102819.56
2023-02-13T02:16:49.718Z,102826.56
2023-02-13T02:19:28.096Z,102819.56
2023-02-13T02:22:16.857Z,102809.00
2023-02-13T02:25:19.921Z,102809.00
2023-02-13T02:28:08.470Z,102804.63
2023-02-13T02:31:24.190Z,102805.47
2023-02-13T02:34:08.542Z,102800.34
2023-02-13T02:36:48.362Z,102801.97
2023-02-13T02:39:27.656Z,102792.34
2023-02-13T02:42:04.499Z,102792.22
2023-02-13T02:44:36.334Z,102783.31
2023-02-13T02:47:29.145Z,102782.59
2023-02-13T02:50:18.160Z,102781.66
2023-02-13T02:52:58.431Z,102780.91
2023-02-13T02:55:36.904Z,102776.41
2023-02-13T02:58:33.428Z,102775.50
2023-02-13T03:01:21.573Z,102779.94
2023-02-13T03:04:08.041Z,102771.00
2023-02-13T03:06:42.153Z,102760.44
2023-02-13T03:09:34.135Z,102758.59
2023-02-13T03:12:21.873Z,102753.25
2023-02-13T03:14:50.088Z,102751.50
2023-02-13T03:17:37.735Z,102738.16
2023-02-13T03:20:36.133Z,102739.19
2023-02-13T03:23:18.649Z,102733.78
2023-02-13T03:26:07.242Z,102738.25
2023-02-13T03:29:10.302Z,102740.78
2023-02-13T03:31:47.755Z,102737.31
2023-02-13T03:34:20.526Z,102746.13
2023-02-13T03:37:09.678Z,102746.91
2023-02-13T03:39:49.312Z,102742.53
2023-02-13T03:42:24.729Z,102737.09
2023-02-13T03:45:11.254Z,102738.88
2023-02-13T03:47:40.536Z,102740.59
2023-02-13T03:50:09.978Z,102738.88
2023-02-13T03:52:42.772Z,102740.59
2023-02-13T03:55:32.693Z,102731.72
2023-02-13T03:58:22.072Z,102731.78
2023-02-13T04:00:54.054Z,102741.53
2023-02-13T04:03:27.443Z,102727.31
2023-02-13T04:06:00.663Z,102728.19
2023-02-13T04:08:28.850Z,102729.06
2023-02-13T04:11:07.199Z,102729.06
2023-02-13T04:13:37.624Z,102726.31
2023-02-13T04:16:12.839Z,102720.97
2023-02-13T04:18:41.337Z,102725.25
2023-02-13T04:21:09.441Z,102712.72
2023-02-13T04:23:37.855Z,102708.31
2023-02-13T04:26:15.410Z,102712.72
2023-02-13T04:28:43.336Z,102717.94
2023-02-13T04:31:11.942Z,102723.19
2023-02-13T04:33:40.015Z,102718.72
2023-02-13T04:36:08.710Z,102730.19
2023-02-13T04:38:36.724Z,102726.59
2023-02-13T04:41:04.733Z,102715.91
2023-02-13T04:43:34.305Z,102739.94
2023-02-13T04:46:02.511Z,102738.91
2023-02-13T04:48:30.833Z,102728.19
2023-02-13T04:50:59.427Z,102731.72
2023-02-13T04:53:27.692Z,102728.97
2023-02-13T04:55:55.732Z,102723.66
2023-02-13T04:58:23.951Z,102725.38
2023-02-13T05:00:53.566Z,102727.06
2023-02-13T05:03:21.898Z,102728.88
2023-02-13T05:05:50.258Z,102727.06
2023-02-13T05:08:18.468Z,102723.53
2023-02-13T05:10:46.774Z,102715.53
2023-02-13T05:13:16.880Z,102716.31
2023-02-13T05:15:45.262Z,102710.97
2023-02-13T05:18:15.632Z,102701.16
2023-02-13T05:20:43.740Z,102704.78
2023-02-13T05:23:23.228Z,102705.63
2023-02-13T05:25:51.968Z,102702.19
2023-02-13T05:28:37.712Z,102703.78
2023-02-13T05:31:06.402Z,102700.28
2023-02-13T05:33:36.314Z,102701.97
2023-02-13T05:36:04.663Z,102704.66
2023-02-13T05:38:32.681Z,102703.69
2023-02-13T05:41:01.296Z,102701.97
2023-02-13T05:43:29.451Z,102690.44
2023-02-13T05:46:04.988Z,102695.81
2023-02-13T05:48:33.189Z,102702.03
2023-02-13T05:51:02.986Z,102707.34
2023-02-13T05:53:31.044Z,102709.16
2023-02-13T05:55:59.056Z,102714.47
2023-02-13T05:58:27.135Z,102717.91
2023-02-13T06:00:58.638Z,102723.25
2023-02-13T06:03:27.799Z,102724.84
2023-02-13T06:05:56.647Z,102718.56
2023-02-13T06:08:27.361Z,102722.84
2023-02-13T06:10:55.820Z,102719.97
2023-02-13T06:13:24.137Z,102730.47
2023-02-13T06:15:52.496Z,102717.97
2023-02-13T06:18:20.570Z,102730.28
2023-02-13T06:20:48.507Z,102719.56
2023-02-13T06:23:18.784Z,102727.56
2023-02-13T06:25:48.244Z,102724.94
2023-02-13T06:28:16.601Z,102715.22
2023-02-13T06:30:44.783Z,102717.88
2023-02-13T06:33:12.961Z,102720.53
2023-02-13T06:35:41.116Z,102713.56
2023-02-13T06:38:09.248Z,102716.28
2023-02-13T06:40:37.335Z,102724.28
2023-02-13T06:43:06.920Z,102720.84
2023-02-13T06:45:35.017Z,102717.22
2023-02-13T06:48:03.155Z,102719.81
2023-02-13T06:50:32.441Z,102720.72
2023-02-13T06:53:01.196Z,102718.03
2023-02-13T06:55:29.923Z,102728.75
2023-02-13T06:57:58.026Z,102725.22
2023-02-13T07:00:27.862Z,102734.19
2023-02-13T07:02:55.988Z,102731.50
2023-02-13T07:05:24.004Z,102729.63
2023-02-13T07:07:52.145Z,102733.22
2023-02-13T07:10:20.478Z,102736.84
2023-02-13T07:13:03.643Z,102738.56
2023-02-13T07:15:35.806Z,102737.72
2023-02-13T07:18:05.860Z,102736.84
2023-02-13T07:20:34.549Z,102730.78
2023-02-13T07:23:03.718Z,102746.88
2023-02-13T07:25:33.039Z,102744.41
2023-02-13T07:28:04.889Z,102744.47
2023-02-13T07:30:36.036Z,102741.84
2023-02-13T07:33:04.987Z,102748.19
2023-02-13T07:35:33.135Z,102751.81
2023-02-13T07:38:01.311Z,102740.25
2023-02-13T07:40:29.659Z,102742.91
2023-02-13T07:43:01.114Z,102739.47
2023-02-13T07:45:29.169Z,102737.81
2023-02-13T07:47:59.942Z,102736.13
2023-02-13T07:50:28.561Z,102733.47
2023-02-13T07:52:56.793Z,102732.59
2023-02-13T07:55:25.061Z,102732.72
2023-02-13T07:57:53.367Z,102738.06
2023-02-13T08:00:22.464Z,102734.59
2023-02-13T08:02:50.565Z,102730.91
2023-02-13T08:05:20.661Z,102735.34
2023-02-13T08:07:48.783Z,102731.56
2023-02-13T08:10:34.770Z,102727.13
2023-02-13T08:13:02.854Z,102731.53
2023-02-13T08:15:30.942Z,102732.19
2023-02-13T08:17:59.233Z,102731.31
2023-02-13T08:20:29.013Z,102725.91
2023-02-13T08:23:07.203Z,102730.19
2023-02-13T08:25:36.316Z,102734.50
2023-02-13T08:28:04.541Z,102735.25
2023-02-13T08:30:35.773Z,102736.06
2023-02-13T08:33:04.588Z,102733.22
2023-02-13T08:35:34.755Z,102736.56
2023-02-13T08:38:06.528Z,102740.84
2023-02-13T08:40:36.713Z,102740.72
2023-02-13T08:43:07.954Z,102745.88
2023-02-13T08:45:37.190Z,102740.50
2023-02-13T08:48:05.606Z,102736.69
2023-02-13T08:50:37.004Z,102744.53
2023-02-13T08:53:05.582Z,102738.19
2023-02-13T08:55:33.868Z,102740.75
2023-02-13T08:58:03.217Z,102732.47
2023-02-13T09:00:32.135Z,102736.75
2023-02-13T09:03:03.296Z,102740.09
2023-02-13T09:05:32.797Z,102739.03
2023-02-13T09:08:03.927Z,102738.69
2023-02-13T09:10:32.403Z,102728.69
2023-02-13T09:13:01.426Z,102724.94
2023-02-13T09:15:29.422Z,102728.13
2023-02-13T09:17:57.507Z,102725.25
2023-02-13T09:20:26.048Z,102717.88
2023-02-13T09:22:56.043Z,102713.25
2023-02-13T09:25:25.830Z,102711.22
2023-02-13T09:27:53.855Z,102701.16
2023-02-13T09:30:24.613Z,102700.06
2023-02-13T09:32:53.230Z,102707.88
2023-02-13T09:35:22.361Z,102701.47
2023-02-13T09:37:50.972Z,102718.97
2023-02-13T09:40:24.243Z,102716.94
2023-02-13T09:42:54.630Z,102727.00
2023-02-13T09:45:23.752Z,102723.22
2023-02-13T09:47:52.110Z,102726.38
2023-02-13T09:50:24.798Z,102729.69
2023-02-13T09:52:55.911Z,102731.81
2023-02-13T09:55:28.631Z,102730.47
2023-02-13T09:58:06.299Z,102726.53
2023-02-13T10:00:40.543Z,102729.63
2023-02-13T10:03:27.527Z,102735.34
2023-02-13T10:06:02.976Z,102737.53
2023-02-13T10:08:42.933Z,102734.47
2023-02-13T10:11:35.251Z,102740.34
2023-02-13T10:14:21.917Z,102749.78
2023-02-13T10:16:54.895Z,102751.78
2023-02-13T10:19:36.142Z,102750.34
2023-02-13T10:22:08.912Z,102753.03
2023-02-13T10:24:41.605Z,102757.03
2023-02-13T10:27:22.801Z,102751.25
2023-02-13T10:30:06.960Z,102762.91
2023-02-13T10:32:50.599Z,102766.69
2023-02-13T10:35:24.684Z,102771.38
2023-02-13T10:38:01.138Z,102768.97
2023-02-13T10:40:40.548Z,102762.38
2023-02-13T10:43:12.282Z,102755.59
2023-02-13T10:46:08.894Z,102756.19
2023-02-13T10:48:54.017Z,102754.16
2023-02-13T10:51:33.702Z,102755.91
2023-02-13T10:54:22.299Z,102753.81
2023-02-13T10:56:58.953Z,102749.09
2023-02-13T10:59:51.608Z,102749.22
2023-02-13T11:02:29.938Z,102744.81
2023-02-13T11:05:04.476Z,102742.13
2023-02-13T11:07:33.891Z,102749.38
2023-02-13T11:10:07.152Z,102753.81
2023-02-13T11:12:38.464Z,102751.13
2023-02-13T11:15:21.361Z,102748.44
2023-02-13T11:17:52.901Z,102729.84
2023-02-13T11:20:33.072Z,102732.53
2023-02-13T11:23:23.551Z,102730.59
2023-02-13T11:26:02.840Z,102722.38
2023-02-13T11:28:33.876Z,102708.94
2023-02-13T11:31:19.444Z,102709.72
2023-02-13T11:33:51.482Z,102709.91
2023-02-13T11:36:28.347Z,102703.28
2023-02-13T11:39:01.731Z,102700.34
2023-02-13T11:41:33.951Z,102690.56
2023-02-13T11:44:06.440Z,102695.38
2023-02-13T11:46:48.443Z,102695.38
2023-02-13T11:49:21.558Z,102693.25
2023-02-13T11:51:53.482Z,102700.94
2023-02-13T11:54:29.316Z,102689.78
2023-02-13T11:57:06.797Z,102685.69
2023-02-13T12:02:30.872Z,102668.41
2023-02-13T12:05:19.231Z,102669.94
2023-02-13T12:07:48.659Z,102665.13
2023-02-13T12:10:23.659Z,102654.28
2023-02-13T12:12:56.771Z,102661.22
2023-02-13T12:15:28.286Z,102653.63
2023-02-13T12:18:06.142Z,102654.28
2023-02-13T12:20:44.806Z,102656.69
2023-02-13T12:23:28.223Z,102650.03
2023-02-13T12:26:17.934Z,102644.25
2023-02-13T12:29:09.403Z,102638.50
2023-02-13T12:31:54.438Z,102635.59
2023-02-13T12:34:56.640Z,102640.56
2023-02-13T12:37:53.339Z,102631.56
2023-02-13T12:44:19.622Z,102616.72
2023-02-13T12:46:56.249Z,102624.38
2023-02-13T12:49:49.984Z,102616.31
2023-02-13T12:52:35.746Z,102627.44
2023-02-13T12:55:20.605Z,102627.00
2023-02-13T12:58:05.280Z,102622.94
2023-02-13T13:00:45.092Z,102617.44
2023-02-13T13:03:35.073Z,102613.94
2023-02-13T13:06:15.522Z,102616.09
2023-02-13T13:09:18.977Z,102614.50
2023-02-13T13:12:11.608Z,102609.59
2023-02-13T13:14:50.015Z,102617.44
2023-02-13T13:17:37.480Z,102623.16
2023-02-13T13:20:23.848Z,102613.03
2023-02-13T13:22:57.348Z,102614.50
2023-02-13T13:25:33.155Z,102612.03
2023-02-13T13:28:07.614Z,102602.75
2023-02-13T13:30:39.731Z,102605.38
2023-02-13T13:33:17.394Z,102606.66
2023-02-13T13:35:54.211Z,102601.91
2023-02-13T13:38:31.942Z,102605.78
2023-02-13T13:41:07.934Z,102607.50
2023-02-13T13:43:51.405Z,102589.16
2023-02-13T13:46:26.359Z,102592.13
2023-02-13T13:49:25.345Z,102589.22
2023-02-13T13:51:53.788Z,102585.84
2023-02-13T13:54:53.076Z,102589.06
2023-02-13T13:57:26.229Z,102584.53
2023-02-13T14:00:32.906Z,102589.84
2023-02-13T14:03:26.335Z,102587.50
2023-02-13T14:06:08.480Z,102582.38
2023-02-13T14:09:37.921Z,102573.25
2023-02-13T14:12:41.545Z,102576.94
2023-02-13T14:15:50.377Z,102567.66
2023-02-13T14:18:27.890Z,102568.38
2023-02-13T14:20:59.357Z,102567.44
2023-02-13T14:23:50.464Z,102562.28
2023-02-13T14:26:34.917Z,102552.63
2023-02-13T14:29:28.900Z,102548.81
2023-02-13T14:32:27.130Z,102546.97
2023-02-13T14:35:01.142Z,102538.72
2023-02-13T14:37:40.490Z,102531.38
2023-02-13T14:40:45.423Z,102528.91
2023-02-13T14:43:35.869Z,102521.59
2023-02-13T14:46:11.021Z,102520.25
2023-02-13T14:48:46.878Z,102524.97
2023-02-13T14:51:28.853Z,102528.63
2023-02-13T14:54:02.889Z,102516.44
2023-02-13T14:56:33.057Z,102536.16
2023-02-13T14:59:12.059Z,102533.22
2023-02-13T15:01:53.059Z,102533.50
2023-02-13T15:04:40.522Z,102539.13
2023-02-13T15:07:26.773Z,102546.09
2023-02-13T15:10:01.600Z,102543.78
2023-02-13T15:12:35.281Z,102541.72
2023-02-13T15:15:25.069Z,102540.31
2023-02-13T15:18:03.586Z,102539.69
2023-02-13T15:20:37.150Z,102544.00
2023-02-13T15:23:09.723Z,102533.84
2023-02-13T15:25:40.285Z,102530.03
2023-02-13T15:28:20.757Z,102526.66
2023-02-13T15:30:56.067Z,102532.69
2023-02-13T15:33:27.478Z,102532.50
2023-02-13T15:35:58.392Z,102538.25
2023-02-13T15:38:32.211Z,102532.28
2023-02-13T15:41:05.377Z,102529.47
2023-02-13T15:43:37.081Z,102537.63
2023-02-13T15:46:08.056Z,102524.66
2023-02-13T15:48:36.876Z,102529.72
2023-02-13T15:51:05.445Z,102528.41
2023-02-13T15:53:35.246Z,102521.06
2023-02-13T15:56:05.481Z,102513.00
2023-02-13T15:58:36.301Z,102505.34
2023-02-13T16:01:08.089Z,102505.06
2023-02-13T16:03:37.982Z,102509.56
2023-02-13T16:06:09.133Z,102509.03
2023-02-13T16:08:46.408Z,102498.94
2023-02-13T16:11:42.166Z,102511.28
2023-02-13T16:14:21.174Z,102513.63
2023-02-13T16:16:53.601Z,102518.03
2023-02-13T16:19:30.203Z,102513.25
2023-02-13T16:22:01.481Z,102520.34
2023-02-13T16:24:32.222Z,102519.06
2023-02-13T16:27:00.748Z,102515.44
2023-02-13T16:29:28.927Z,102513.91
2023-02-13T16:32:05.783Z,102502.00
2023-02-13T16:34:33.930Z,102494.66
2023-02-13T16:37:02.007Z,102497.94
2023-02-13T16:39:33.904Z,102502.34
2023-02-13T16:42:02.899Z,102508.50
2023-02-13T16:44:32.451Z,102506.28
2023-02-13T16:47:02.996Z,102501.25
2023-02-13T16:49:34.170Z,102510.53
2023-02-13T16:52:12.702Z,102518.63
2023-02-13T16:54:56.153Z,102521.16
2023-02-13T16:57:30.237Z,102514.31
2023-02-13T17:00:15.865Z,102507.38
2023-02-13T17:02:44.099Z,102524.44
2023-02-13T17:05:22.525Z,102524.03
2023-02-13T17:07:55.434Z,102526.72
2023-02-13T17:10:27.707Z,102524.63
2023-02-13T17:12:58.505Z,102529.75
2023-02-13T17:15:28.627Z,102538.19
2023-02-13T17:17:56.954Z,102550.78
2023-02-13T17:20:27.909Z,102537.22
2023-02-13T17:22:58.191Z,102537.84
2023-02-13T17:25:29.642Z,102532.88
2023-02-13T17:28:01.009Z,102542.72
2023-02-13T17:30:32.935Z,102548.63
2023-02-13T17:33:07.619Z,102550.16
2023-02-13T17:35:37.321Z,102544.09
2023-02-13T17:38:10.218Z,102554.75
2023-02-13T17:40:41.527Z,102549.44
2023-02-13T17:43:13.014Z,102545.84
2023-02-13T17:45:41.308Z,102544.72
2023-02-13T17:48:09.693Z,102548.16
2023-02-13T17:50:38.267Z,102551.34
2023-02-13T17:53:10.219Z,102545.03
2023-02-13T17:55:42.595Z,102553.66
2023-02-13T17:58:11.368Z,102553.28
2023-02-13T18:00:40.079Z,102549.47
2023-02-13T18:03:09.171Z,102545.38
2023-02-13T18:05:39.091Z,102558.38
2023-02-13T18:08:07.779Z,102554.41
2023-02-13T18:10:38.093Z,102554.03
2023-02-13T18:13:08.535Z,102558.81
2023-02-13T18:15:42.793Z,102560.00
2023-02-13T18:18:13.618Z,102558.53
2023-02-13T18:20:50.056Z,102564.09
2023-02-13T18:23:31.464Z,102564.34
2023-02-13T18:26:12.791Z,102563.69
2023-02-13T18:28:44.202Z,102560.25
2023-02-13T18:31:17.423Z,102555.19
2023-02-13T18:36:57.053Z,102555.53
2023-02-13T18:39:27.327Z,102559.47
2023-02-13T18:41:57.552Z,102557.88
2023-02-13T18:44:29.177Z,102562.50
2023-02-13T18:46:57.536Z,102567.13
2023-02-13T18:49:26.114Z,102565.56
2023-02-13T18:51:54.701Z,102567.53
2023-02-13T18:54:24.346Z,102566.91
2023-02-13T18:56:53.200Z,102559.19
2023-02-13T18:59:22.164Z,102567.28
2023-02-13T19:01:52.816Z,102577.25
2023-02-13T19:04:20.988Z,102573.94
2023-02-13T19:06:48.952Z,102566.06
2023-02-13T19:09:16.999Z,102578.72
2023-02-13T19:11:45.982Z,102574.38
2023-02-13T19:14:15.356Z,102582.59
2023-02-13T19:16:43.619Z,102580.97
2023-02-13T19:19:13.136Z,102580.16
2023-02-13T19:21:41.289Z,102588.38
2023-02-13T19:24:10.981Z,102585.78
2023-02-13T19:26:39.027Z,102592.13
2023-02-13T19:29:07.072Z,102584.34
2023-02-13T19:31:35.569Z,102583.53
2023-02-13T19:34:05.956Z,102581.81
2023-02-13T19:36:35.545Z,102586.41
2023-02-13T19:39:06.832Z,102584.78
2023-02-13T19:41:35.995Z,102579.47
2023-02-13T19:44:05.418Z,102586.78
2023-02-13T19:46:34.046Z,102595.75
2023-02-13T19:49:03.172Z,102587.94
2023-02-13T19:51:32.801Z,102598.63
2023-02-13T19:54:04.564Z,102594.13
2023-02-13T19:56:36.527Z,102607.53
2023-02-13T19:59:05.347Z,102603.13
2023-02-13T20:01:33.531Z,102609.34
2023-02-13T20:04:01.575Z,102611.13
2023-02-13T20:06:33.531Z,102606.81
2023-02-13T20:09:06.615Z,102606.94
2023-02-13T20:11:34.747Z,102607.81
2023-02-13T20:14:04.984Z,102600.88
2023-02-13T20:16:36.672Z,102593.81
2023-02-13T20:19:09.233Z,102599.22
2023-02-13T20:21:37.616Z,102599.28
2023-02-13T20:24:07.770Z,102586.03
2023-02-13T20:26:38.136Z,102581.75
2023-02-13T20:29:06.667Z,102579.94
2023-02-13T20:31:35.031Z,102571.09
2023-02-13T20:34:07.263Z,102569.34
2023-02-13T20:36:50.366Z,102563.28
2023-02-13T20:42:41.285Z,102573.25
2023-02-13T20:45:10.347Z,102574.13
2023-02-13T20:47:38.363Z,102570.50
2023-02-13T20:50:07.101Z,102570.50
2023-02-13T20:52:35.999Z,102570.44
2023-02-13T20:55:04.441Z,102573.91
2023-02-13T20:57:34.832Z,102568.56
2023-02-13T21:00:06.337Z,102573.84
2023-02-13T21:02:36.180Z,102573.75
2023-02-13T21:05:05.347Z,102568.38
2023-02-13T21:07:35.574Z,102556.69
2023-02-13T21:10:05.999Z,102550.47
2023-02-13T21:12:35.071Z,102550.56
2023-02-13T21:15:05.149Z,102553.28
2023-02-13T21:17:34.124Z,102550.63
2023-02-13T21:20:02.503Z,102561.38
2023-02-13T21:22:31.389Z,102577.25
2023-02-13T21:24:59.546Z,102578.09
2023-02-13T21:27:28.498Z,102577.06
2023-02-13T21:29:57.299Z,102569.03
2023-02-13T21:32:27.273Z,102568.16
2023-02-13T21:34:56.788Z,102572.56
2023-02-13T21:37:24.839Z,102578.97
2023-02-13T21:39:52.888Z,102582.63
2023-02-13T21:42:21.504Z,102600.63
2023-02-13T21:44:49.655Z,102600.69
2023-02-13T21:47:18.432Z,102598.16
2023-02-13T21:49:49.437Z,102587.66
2023-02-13T21:52:18.899Z,102585.00
2023-02-13T21:54:49.327Z,102579.78
2023-02-13T21:57:20.646Z,102581.59
2023-02-13T21:59:48.861Z,102581.66
2023-02-13T22:02:17.441Z,102571.03
2023-02-13T22:04:46.080Z,102579.97
2023-02-13T22:07:15.526Z,102587.22
2023-02-13T22:09:43.495Z,102593.59
2023-02-13T22:12:11.481Z,102595.38
2023-02-13T22:14:39.571Z,102599.91
2023-02-13T22:17:07.637Z,102591.78
2023-02-13T22:19:35.781Z,102592.56
2023-02-13T22:22:03.838Z,102586.13
2023-02-13T22:24:33.842Z,102588.44
2023-02-13T22:27:03.210Z,102577.50
2023-02-13T22:29:31.292Z,102572.75
2023-02-13T22:31:59.480Z,102574.19
2023-02-13T22:34:27.549Z,102597.97
2023-02-13T22:36:55.751Z,102593.13
2023-02-13T22:39:23.835Z,102591.97
2023-02-13T22:41:56.911Z,102591.53
2023-02-13T22:44:24.876Z,102585.78
2023-02-13T22:46:52.866Z,102571.16
2023-02-13T22:49:20.968Z,102568.34
2023-02-13T22:51:48.943Z,102560.06
2023-02-13T22:54:17.050Z,102571.66
2023-02-13T22:56:45.096Z,102580.53
2023-02-13T22:59:14.565Z,102583.19
2023-02-13T23:01:42.593Z,102582.25
2023-02-13T23:04:10.703Z,102578.72
2023-02-13T23:06:38.688Z,102569.03
2023-02-13T23:09:08.260Z,102563.00
2023-02-13T23:11:53.606Z,102563.13
2023-02-13T23:14:26.172Z,102566.16
2023-02-13T23:17:11.584Z,102561.88
2023-02-13T23:19:39.491Z,102566.56
2023-02-13T23:22:07.677Z,102566.75
2023-02-13T23:24:35.736Z,102568.59
2023-02-13T23:27:03.765Z,102563.34
2023-02-13T23:29:33.224Z,102565.16
2023-02-13T23:32:01.413Z,102552.88
2023-02-13T23:34:29.607Z,102551.16
2023-02-13T23:36:57.628Z,102549.34
2023-02-13T23:39:25.772Z,102548.50
2023-02-13T23:41:54.340Z,102547.72
2023-02-13T23:44:22.398Z,102548.69
2023-02-13T23:46:51.896Z,102550.44
2023-02-13T23:49:21.025Z,102559.47
2023-02-13T23:51:49.453Z,102550.63
2023-02-13T23:54:18.740Z,102546.25
2023-02-13T23:56:47.184Z,102542.63
2023-02-13T23:59:16.610Z,102534.72
